createdAt,value
2023-05-20T00:02:12.261Z,9.20
2023-05-20T00:05:18.043Z,9.23
2023-05-20T00:08:23.977Z,8.98
2023-05-20T00:11:31.456Z,9.25
2023-05-20T00:14:37.297Z,9.00
2023-05-20T00:17:43.213Z,8.95
2023-05-20T00:20:50.493Z,8.70
2023-05-20T00:23:56.942Z,10.03
2023-05-20T00:27:02.826Z,9.23
2023-05-20T00:30:09.822Z,9.48
2023-05-20T00:33:15.654Z,9.30
2023-05-20T00:36:21.923Z,10.03
2023-05-20T00:39:28.695Z,9.33
2023-05-20T00:42:39.535Z,9.55
2023-05-20T00:45:46.333Z,9.05
2023-05-20T00:48:58.174Z,9.55
2023-05-20T00:52:04.795Z,9.48
2023-05-20T00:55:11.643Z,9.68
2023-05-20T00:58:16.199Z,9.25
2023-05-20T01:01:22.223Z,9.33
2023-05-20T01:04:28.706Z,9.70
2023-05-20T01:07:34.507Z,10.45
2023-05-20T01:10:39.321Z,10.10
2023-05-20T01:13:51.196Z,9.10
2023-05-20T01:16:56.754Z,10.10
2023-05-20T01:20:03.645Z,10.35
2023-05-20T01:23:11.399Z,10.13
2023-05-20T01:26:19.902Z,11.03
2023-05-20T01:29:26.560Z,10.43
2023-05-20T01:32:38.990Z,10.38
2023-05-20T01:35:44.304Z,10.05
2023-05-20T01:38:50.636Z,11.83
2023-05-20T01:41:57.421Z,10.38
2023-05-20T01:45:02.838Z,10.60
2023-05-20T01:48:09.755Z,10.60
2023-05-20T01:51:15.735Z,11.08
2023-05-20T01:54:22.383Z,12.00
2023-05-20T01:57:28.491Z,9.98
2023-05-20T02:00:35.774Z,10.35
2023-05-20T02:03:42.521Z,11.30
2023-05-20T02:06:48.995Z,11.28
2023-05-20T02:09:56.208Z,11.68
2023-05-20T02:13:02.362Z,10.85
2023-05-20T02:16:07.433Z,11.55
2023-05-20T02:19:13.072Z,11.00
2023-05-20T02:22:19.025Z,12.18
2023-05-20T02:25:24.897Z,11.48
2023-05-20T02:28:24.626Z,11.95
2023-05-20T02:31:32.138Z,11.53
2023-05-20T02:34:37.760Z,12.35
2023-05-20T02:37:42.473Z,11.57
2023-05-20T02:40:48.982Z,12.13
2023-05-20T02:43:54.767Z,11.40
2023-05-20T02:47:00.134Z,12.35
2023-05-20T02:50:05.897Z,12.73
2023-05-20T02:53:11.366Z,12.18
2023-05-20T02:56:17.993Z,11.83
2023-05-20T02:59:23.590Z,11.88
2023-05-20T03:02:30.166Z,12.28
2023-05-20T03:05:37.300Z,12.37
2023-05-20T03:08:42.555Z,12.73
2023-05-20T03:11:48.948Z,12.85
2023-05-20T03:14:54.910Z,13.15
2023-05-20T03:18:01.290Z,12.53
2023-05-20T03:21:07.693Z,12.35
2023-05-20T03:24:13.170Z,12.55
2023-05-20T03:27:19.664Z,13.20
2023-05-20T03:30:28.433Z,12.75
2023-05-20T03:33:34.314Z,13.48
2023-05-20T03:36:39.799Z,14.58
2023-05-20T03:39:44.751Z,14.10
2023-05-20T03:42:52.451Z,14.05
2023-05-20T03:45:58.734Z,14.50
2023-05-20T03:49:03.963Z,13.15
2023-05-20T03:52:10.734Z,13.43
2023-05-20T03:55:16.208Z,12.85
2023-05-20T03:58:21.589Z,12.90
2023-05-20T04:01:31.490Z,13.20
2023-05-20T04:04:38.415Z,13.93
2023-05-20T04:07:45.782Z,14.80
2023-05-20T04:10:52.114Z,19.45
2023-05-20T04:14:11.340Z,22.07
2023-05-20T04:17:21.310Z,16.80
2023-05-20T04:20:27.671Z,15.32
2023-05-20T04:23:37.002Z,16.20
2023-05-20T04:26:42.772Z,15.72
2023-05-20T04:29:50.709Z,13.45
2023-05-20T04:32:59.782Z,12.78
2023-05-20T04:36:06.310Z,12.40
2023-05-20T04:39:12.724Z,13.32
2023-05-20T04:42:21.220Z,12.78
2023-05-20T04:45:30.327Z,13.25
2023-05-20T04:48:35.833Z,14.28
2023-05-20T04:51:42.559Z,13.45
2023-05-20T04:54:50.234Z,13.05
2023-05-20T04:57:57.605Z,12.45
2023-05-20T05:01:03.891Z,11.97
2023-05-20T05:04:09.387Z,13.38
2023-05-20T05:07:16.958Z,12.05
2023-05-20T05:10:23.012Z,12.43
2023-05-20T05:13:28.917Z,12.73
2023-05-20T05:16:35.271Z,11.80
2023-05-20T05:19:41.254Z,10.78
2023-05-20T05:22:48.696Z,12.00
2023-05-20T05:25:55.027Z,11.18
2023-05-20T05:29:00.413Z,11.83
2023-05-20T05:32:05.478Z,11.80
2023-05-20T05:35:10.640Z,11.20
2023-05-20T05:38:16.727Z,11.38
2023-05-20T05:41:22.234Z,11.40
2023-05-20T05:44:27.498Z,12.15
2023-05-20T05:47:35.110Z,10.85
2023-05-20T05:50:42.301Z,10.88
2023-05-20T05:53:48.889Z,11.25
2023-05-20T05:56:54.539Z,10.40
2023-05-20T06:00:01.822Z,11.08
2023-05-20T06:03:19.247Z,10.80
2023-05-20T06:06:26.544Z,10.30
2023-05-20T06:09:32.512Z,9.70
2023-05-20T06:12:38.919Z,9.23
2023-05-20T06:15:46.046Z,10.35
2023-05-20T06:18:52.698Z,9.88
2023-05-20T06:21:59.670Z,9.50
2023-05-20T06:25:08.369Z,10.40
2023-05-20T06:28:15.617Z,9.03
2023-05-20T06:31:22.048Z,9.25
2023-05-20T06:34:30.805Z,8.80
2023-05-20T06:37:36.672Z,8.95
2023-05-20T06:40:43.594Z,8.65
2023-05-20T06:43:52.591Z,8.35
2023-05-20T06:47:15.862Z,7.58
2023-05-20T06:50:24.445Z,7.92
2023-05-20T06:53:30.701Z,8.50
2023-05-20T06:56:37.874Z,8.15
2023-05-20T06:59:44.577Z,7.75
2023-05-20T07:02:53.334Z,8.25
2023-05-20T07:06:00.681Z,9.18
2023-05-20T07:09:07.405Z,8.00
2023-05-20T07:12:15.371Z,8.55
2023-05-20T07:15:22.982Z,8.60
2023-05-20T07:18:29.335Z,7.60
2023-05-20T07:21:35.176Z,8.40
2023-05-20T07:24:57.771Z,8.20
2023-05-20T07:28:05.909Z,7.92
2023-05-20T07:31:12.826Z,7.78
2023-05-20T07:34:19.442Z,7.03
2023-05-20T07:37:26.208Z,6.90
2023-05-20T07:40:33.848Z,7.35
2023-05-20T07:43:41.517Z,6.80
2023-05-20T07:46:49.450Z,6.65
2023-05-20T07:49:55.855Z,6.87
2023-05-20T07:53:03.103Z,6.50
2023-05-20T07:56:10.188Z,5.92
2023-05-20T07:59:16.959Z,6.12
2023-05-20T08:02:24.074Z,6.17
2023-05-20T08:05:30.491Z,6.20
2023-05-20T08:08:41.675Z,6.10
2023-05-20T08:14:54.420Z,5.58
2023-05-20T08:18:02.021Z,5.55
2023-05-20T08:21:09.247Z,5.92
2023-05-20T08:24:15.680Z,5.33
2023-05-20T08:27:22.100Z,5.70
2023-05-20T08:30:27.929Z,6.00
2023-05-20T08:33:34.342Z,5.60
2023-05-20T08:36:40.292Z,5.35
2023-05-20T08:39:46.956Z,5.50
2023-05-20T08:43:02.018Z,4.92
2023-05-20T08:46:09.656Z,5.97
2023-05-20T08:49:14.879Z,5.53
2023-05-20T08:52:20.678Z,6.05
2023-05-20T08:55:33.657Z,6.03
2023-05-20T08:58:43.182Z,5.75
2023-05-20T09:01:51.676Z,5.60
2023-05-20T09:05:00.793Z,5.47
2023-05-20T09:08:06.817Z,6.17
2023-05-20T09:11:12.960Z,5.92
2023-05-20T09:14:20.086Z,5.67
2023-05-20T09:17:27.644Z,5.47
2023-05-20T09:20:32.195Z,5.72
2023-05-20T09:23:37.639Z,5.53
2023-05-20T09:26:43.272Z,5.70
2023-05-20T09:29:51.226Z,5.35
2023-05-20T09:32:58.511Z,5.40
2023-05-20T09:36:05.983Z,5.50
2023-05-20T09:39:14.926Z,5.03
2023-05-20T09:42:42.684Z,4.70
2023-05-20T09:45:49.473Z,4.62
2023-05-20T09:48:57.197Z,5.20
2023-05-20T09:52:04.767Z,5.00
2023-05-20T09:55:03.085Z,5.40
2023-05-20T09:58:12.449Z,5.00
2023-05-20T10:01:20.820Z,4.90
2023-05-20T10:04:26.655Z,5.00
2023-05-20T10:08:05.088Z,5.80
2023-05-20T10:11:22.092Z,5.40
2023-05-20T10:14:55.899Z,5.15
2023-05-20T10:18:31.624Z,4.87
2023-05-20T10:21:38.627Z,4.65
2023-05-20T10:24:53.781Z,4.70
2023-05-20T10:28:00.912Z,4.78
2023-05-20T10:31:07.430Z,5.00
2023-05-20T10:34:14.896Z,4.90
2023-05-20T10:37:16.014Z,4.92
2023-05-20T10:40:23.613Z,4.67
2023-05-20T10:43:37.096Z,4.40
2023-05-20T10:49:51.198Z,4.72
2023-05-20T10:52:56.318Z,4.90
2023-05-20T10:56:07.569Z,4.37
2023-05-20T10:59:15.277Z,4.90
2023-05-20T11:02:21.308Z,4.62
2023-05-20T11:05:27.871Z,5.30
2023-05-20T11:08:33.838Z,4.72
2023-05-20T11:11:38.577Z,4.75
2023-05-20T11:14:47.213Z,5.28
2023-05-20T11:17:56.250Z,4.47
2023-05-20T11:21:02.175Z,5.00
2023-05-20T11:24:07.546Z,4.92
2023-05-20T11:27:13.025Z,4.58
2023-05-20T11:30:19.989Z,4.40
2023-05-20T11:33:28.009Z,4.60
2023-05-20T11:36:35.786Z,4.75
2023-05-20T11:39:47.249Z,5.35
2023-05-20T11:42:53.804Z,5.03
2023-05-20T11:46:00.991Z,4.95
2023-05-20T11:49:09.236Z,4.50
2023-05-20T11:52:15.748Z,4.53
2023-05-20T11:55:28.768Z,4.42
2023-05-20T11:58:41.295Z,4.80
2023-05-20T12:01:51.805Z,4.58
2023-05-20T12:04:58.053Z,4.95
2023-05-20T12:08:06.412Z,4.70
2023-05-20T12:11:12.562Z,4.67
2023-05-20T12:14:21.020Z,5.10
2023-05-20T12:17:27.403Z,4.47
2023-05-20T12:20:36.293Z,4.35
2023-05-20T12:23:44.182Z,4.30
2023-05-20T12:26:50.755Z,4.17
2023-05-20T12:29:57.620Z,4.20
2023-05-20T12:33:04.792Z,4.67
2023-05-20T12:36:11.716Z,4.50
2023-05-20T12:39:17.843Z,4.28
2023-05-20T12:42:24.762Z,4.47
2023-05-20T12:45:29.823Z,4.85
2023-05-20T12:48:36.840Z,5.15
2023-05-20T12:51:44.916Z,4.60
2023-05-20T12:54:50.868Z,4.65
2023-05-20T12:57:57.944Z,5.65
2023-05-20T13:01:04.734Z,5.25
2023-05-20T13:04:10.772Z,4.58
2023-05-20T13:07:18.066Z,4.80
2023-05-20T13:10:25.643Z,4.58
2023-05-20T13:13:32.192Z,5.33
2023-05-20T13:16:39.511Z,4.85
2023-05-20T13:19:45.876Z,4.42
2023-05-20T13:22:52.525Z,5.17
2023-05-20T13:26:01.413Z,5.08
2023-05-20T13:29:07.642Z,4.87
2023-05-20T13:32:14.480Z,5.28
2023-05-20T13:35:24.285Z,4.47
2023-05-20T13:38:30.696Z,4.55
2023-05-20T13:41:37.583Z,5.22
2023-05-20T13:44:45.365Z,5.80
2023-05-20T13:47:51.265Z,4.90
2023-05-20T13:50:58.537Z,4.70
2023-05-20T13:54:04.036Z,4.50
2023-05-20T13:57:12.371Z,4.03
2023-05-20T14:00:18.957Z,5.17
2023-05-20T14:03:24.410Z,5.17
2023-05-20T14:06:33.138Z,5.22
2023-05-20T14:09:39.084Z,5.15
2023-05-20T14:12:45.613Z,4.83
2023-05-20T14:15:53.183Z,5.25
2023-05-20T14:19:01.179Z,4.65
2023-05-20T14:22:07.946Z,4.60
2023-05-20T14:25:14.230Z,4.83
2023-05-20T14:28:20.874Z,5.00
2023-05-20T14:31:27.276Z,5.22
2023-05-20T14:34:32.635Z,4.80
2023-05-20T14:37:37.934Z,4.60
2023-05-20T14:40:43.942Z,5.20
2023-05-20T14:43:50.375Z,5.55
2023-05-20T14:46:56.650Z,5.20
2023-05-20T14:50:05.610Z,5.30
2023-05-20T14:53:10.773Z,5.10
2023-05-20T14:56:18.269Z,5.20
2023-05-20T14:59:23.612Z,5.15
2023-05-20T15:02:31.462Z,5.30
2023-05-20T15:05:36.532Z,4.37
2023-05-20T15:08:43.135Z,4.80
2023-05-20T15:11:49.722Z,5.25
2023-05-20T15:14:56.866Z,4.53
2023-05-20T15:18:03.388Z,4.65
2023-05-20T15:21:09.966Z,4.40
2023-05-20T15:24:14.991Z,4.47
2023-05-20T15:27:20.790Z,5.35
2023-05-20T15:30:29.368Z,4.55
2023-05-20T15:33:35.811Z,4.90
2023-05-20T15:36:45.004Z,4.45
2023-05-20T15:39:54.147Z,4.28
2023-05-20T15:43:00.049Z,4.03
2023-05-20T15:46:06.372Z,4.75
2023-05-20T15:49:11.650Z,4.67
2023-05-20T15:52:18.112Z,5.60
2023-05-20T15:55:25.035Z,5.20
2023-05-20T15:58:31.567Z,5.00
2023-05-20T16:01:39.673Z,5.05
2023-05-20T16:04:45.258Z,4.58
2023-05-20T16:07:53.026Z,5.50
2023-05-20T16:10:59.220Z,4.17
2023-05-20T16:14:05.584Z,3.83
2023-05-20T16:17:11.999Z,3.50
2023-05-20T16:20:19.575Z,3.80
2023-05-20T16:23:27.082Z,3.50
2023-05-20T16:26:33.733Z,3.10
2023-05-20T16:29:39.829Z,3.10
2023-05-20T16:32:45.494Z,3.77
2023-05-20T16:35:52.185Z,3.92
2023-05-20T16:38:58.935Z,3.42
2023-05-20T16:45:10.312Z,3.80
2023-05-20T16:48:16.300Z,3.40
2023-05-20T16:51:20.632Z,3.58
2023-05-20T16:54:27.898Z,3.15
2023-05-20T16:57:33.196Z,3.80
2023-05-20T17:00:39.546Z,4.97
2023-05-20T17:03:49.040Z,3.77
2023-05-20T17:07:00.128Z,4.33
2023-05-20T17:10:06.459Z,5.10
2023-05-20T17:13:13.408Z,4.55
2023-05-20T17:16:19.507Z,4.47
2023-05-20T17:19:26.126Z,4.70
2023-05-20T17:22:32.835Z,4.60
2023-05-20T17:25:39.305Z,4.78
2023-05-20T17:28:44.867Z,5.08
2023-05-20T17:31:51.365Z,4.92
2023-05-20T17:34:58.230Z,5.70
2023-05-20T17:38:05.003Z,4.80
2023-05-20T17:41:11.095Z,5.05
2023-05-20T17:44:17.836Z,4.85
2023-05-20T17:47:23.859Z,5.33
2023-05-20T17:50:30.222Z,5.50
2023-05-20T17:53:36.204Z,5.40
2023-05-20T17:56:41.502Z,5.45
2023-05-20T17:59:49.877Z,5.12
2023-05-20T18:02:56.461Z,5.17
2023-05-20T18:06:04.722Z,5.08
2023-05-20T18:09:12.602Z,4.97
2023-05-20T18:12:18.278Z,4.87
2023-05-20T18:15:26.106Z,5.12
2023-05-20T18:18:31.045Z,4.87
2023-05-20T18:21:38.202Z,5.37
2023-05-20T18:24:45.056Z,5.90
2023-05-20T18:27:51.660Z,5.00
2023-05-20T18:30:57.408Z,5.95
2023-05-20T18:34:02.745Z,5.42
2023-05-20T18:37:10.111Z,5.05
2023-05-20T18:40:16.797Z,5.20
2023-05-20T18:43:22.989Z,5.03
2023-05-20T18:46:28.752Z,4.90
2023-05-20T18:49:34.295Z,5.00
2023-05-20T18:52:39.935Z,4.97
2023-05-20T18:55:45.432Z,4.55
2023-05-20T18:58:50.859Z,4.72
2023-05-20T19:01:58.981Z,5.03
2023-05-20T19:05:07.240Z,4.47
2023-05-20T19:08:14.248Z,4.65
2023-05-20T19:11:19.950Z,4.53
2023-05-20T19:14:25.944Z,4.53
2023-05-20T19:17:34.444Z,4.60
2023-05-20T19:20:41.902Z,5.03
2023-05-20T19:23:49.509Z,4.20
2023-05-20T19:26:55.146Z,4.40
2023-05-20T19:30:00.564Z,4.17
2023-05-20T19:33:07.365Z,3.85
2023-05-20T19:36:12.501Z,4.10
2023-05-20T19:39:18.222Z,4.03
2023-05-20T19:42:23.983Z,4.25
2023-05-20T19:45:30.293Z,4.55
2023-05-20T19:48:36.349Z,4.20
2023-05-20T19:51:41.377Z,4.47
2023-05-20T19:54:49.024Z,4.42
2023-05-20T19:57:58.484Z,4.75
2023-05-20T20:01:04.228Z,4.15
2023-05-20T20:04:10.211Z,4.10
2023-05-20T20:07:16.046Z,4.10
2023-05-20T20:10:22.238Z,3.65
2023-05-20T20:13:27.101Z,3.72
2023-05-20T20:16:34.547Z,3.33
2023-05-20T20:19:40.268Z,3.60
2023-05-20T20:22:45.207Z,3.30
2023-05-20T20:25:54.616Z,3.40
2023-05-20T20:29:01.178Z,3.75
2023-05-20T20:32:07.154Z,3.60
2023-05-20T20:35:12.713Z,3.27
2023-05-20T20:38:19.238Z,3.45
2023-05-20T20:41:25.039Z,3.15
2023-05-20T20:44:36.420Z,2.90
2023-05-20T20:47:44.448Z,2.60
2023-05-20T20:50:50.786Z,2.83
2023-05-20T20:53:56.141Z,2.35
2023-05-20T20:57:04.255Z,2.67
2023-05-20T21:00:11.892Z,2.55
2023-05-20T21:03:20.744Z,2.60
2023-05-20T21:06:28.579Z,2.60
2023-05-20T21:09:34.452Z,2.33
2023-05-20T21:12:41.055Z,2.70
2023-05-20T21:15:46.671Z,2.05
2023-05-20T21:18:52.920Z,2.25
2023-05-20T21:21:59.279Z,2.42
2023-05-20T21:25:05.360Z,2.27
2023-05-20T21:28:10.697Z,1.90
2023-05-20T21:31:16.764Z,2.17
2023-05-20T21:34:22.847Z,2.20
2023-05-20T21:37:29.935Z,6.00
2023-05-20T21:40:35.899Z,3.08
2023-05-20T21:43:43.138Z,2.30
2023-05-20T21:46:50.361Z,2.15
2023-05-20T21:49:55.668Z,2.25
2023-05-20T21:53:03.081Z,2.40
2023-05-20T21:56:08.352Z,2.33
2023-05-20T21:59:15.810Z,2.62
2023-05-20T22:02:22.127Z,2.70
2023-05-20T22:05:28.561Z,2.22
2023-05-20T22:08:37.776Z,2.15
2023-05-20T22:11:44.869Z,1.92
2023-05-20T22:14:50.823Z,2.10
2023-05-20T22:17:57.756Z,2.20
2023-05-20T22:21:05.517Z,1.95
2023-05-20T22:24:10.426Z,2.35
2023-05-20T22:27:16.200Z,2.10
2023-05-20T22:30:23.842Z,2.10
2023-05-20T22:33:31.471Z,1.87
2023-05-20T22:36:38.850Z,1.60
2023-05-20T22:39:44.366Z,1.95
2023-05-20T22:42:50.650Z,1.65
2023-05-20T22:45:56.966Z,1.60
2023-05-20T22:49:04.844Z,2.02
2023-05-20T22:52:10.721Z,1.87
2023-05-20T22:55:16.560Z,1.55
2023-05-20T22:58:24.739Z,2.00
2023-05-20T23:01:31.373Z,1.75
2023-05-20T23:04:37.067Z,1.85
2023-05-20T23:07:43.358Z,1.52
2023-05-20T23:10:48.736Z,1.62
2023-05-20T23:13:55.002Z,2.00
2023-05-20T23:17:02.016Z,2.10
2023-05-20T23:20:08.352Z,1.90
2023-05-20T23:23:15.437Z,1.87
2023-05-20T23:26:22.148Z,1.98
2023-05-20T23:29:27.799Z,1.98
2023-05-20T23:32:32.939Z,1.77
2023-05-20T23:35:39.771Z,1.80
2023-05-20T23:38:46.860Z,1.62
2023-05-20T23:41:55.478Z,1.65
2023-05-20T23:45:01.633Z,1.65
2023-05-20T23:48:08.033Z,1.50
2023-05-20T23:51:17.205Z,1.65
2023-05-20T23:54:22.862Z,1.60
2023-05-20T23:57:29.336Z,1.57
